sensor_id;sensor_type;location;lat;lon;timestamp;temperature;humidity
7445;DHT22;3764;48.126;11.594;2023-06-01T00:02:14;18.40;99.90
7445;DHT22;3764;48.126;11.594;2023-06-01T00:04:41;18.30;99.90
7445;DHT22;3764;48.126;11.594;2023-06-01T00:07:10;18.30;99.90
7445;DHT22;3764;48.126;11.594;2023-06-01T00:09:37;18.30;99.90
7445;DHT22;3764;48.126;11.594;2023-06-01T00:12:05;18.20;99.90
7445;DHT22;3764;48.126;11.594;2023-06-01T00:14:33;18.30;99.90
7445;DHT22;3764;48.126;11.594;2023-06-01T00:17:00;18.20;99.90
7445;DHT22;3764;48.126;11.594;2023-06-01T00:19:28;18.20;99.90
7445;DHT22;3764;48.126;11.594;2023-06-01T00:21:55;18.20;99.90
7445;DHT22;3764;48.126;11.594;2023-06-01T00:24:24;18.20;99.90
7445;DHT22;3764;48.126;11.594;2023-06-01T00:26:51;18.10;99.90
7445;DHT22;3764;48.126;11.594;2023-06-01T00:29:18;18.10;99.90
7445;DHT22;3764;48.126;11.594;2023-06-01T00:31:46;18.10;99.90
7445;DHT22;3764;48.126;11.594;2023-06-01T00:34:13;18.10;99.90
7445;DHT22;3764;48.126;11.594;2023-06-01T00:36:40;18.10;99.90
7445;DHT22;3764;48.126;11.594;2023-06-01T00:39:07;18.10;99.90
7445;DHT22;3764;48.126;11.594;2023-06-01T00:41:36;18.00;99.90
7445;DHT22;3764;48.126;11.594;2023-06-01T00:44:03;18.00;99.90
7445;DHT22;3764;48.126;11.594;2023-06-01T00:46:31;18.00;99.90
7445;DHT22;3764;48.126;11.594;2023-06-01T00:48:58;17.90;99.90
7445;DHT22;3764;48.126;11.594;2023-06-01T00:51:26;17.90;99.90
7445;DHT22;3764;48.126;11.594;2023-06-01T00:53:53;17.90;99.90
7445;DHT22;3764;48.126;11.594;2023-06-01T00:56:20;17.80;99.90
7445;DHT22;3764;48.126;11.594;2023-06-01T00:58:49;17.80;99.90
7445;DHT22;3764;48.126;11.594;2023-06-01T01:01:16;17.80;99.90
7445;DHT22;3764;48.126;11.594;2023-06-01T01:03:49;17.80;99.90
7445;DHT22;3764;48.126;11.594;2023-06-01T01:06:30;17.80;99.90
7445;DHT22;3764;48.126;11.594;2023-06-01T01:09:09;17.70;99.90
7445;DHT22;3764;48.126;11.594;2023-06-01T01:11:38;17.70;99.90
7445;DHT22;3764;48.126;11.594;2023-06-01T01:14:14;17.70;99.90
7445;DHT22;3764;48.126;11.594;2023-06-01T01:16:45;17.70;99.90
7445;DHT22;3764;48.126;11.594;2023-06-01T01:19:29;17.60;99.90
7445;DHT22;3764;48.126;11.594;2023-06-01T01:22:06;17.60;99.90
7445;DHT22;3764;48.126;11.594;2023-06-01T01:24:43;17.60;99.90
7445;DHT22;3764;48.126;11.594;2023-06-01T01:27:21;17.60;99.90
7445;DHT22;3764;48.126;11.594;2023-06-01T01:29:52;17.50;99.90
7445;DHT22;3764;48.126;11.594;2023-06-01T01:32:20;17.50;99.90
7445;DHT22;3764;48.126;11.594;2023-06-01T01:34:49;17.50;99.90
7445;DHT22;3764;48.126;11.594;2023-06-01T01:37:16;17.50;99.90
7445;DHT22;3764;48.126;11.594;2023-06-01T01:39:43;17.40;99.90
7445;DHT22;3764;48.126;11.594;2023-06-01T01:42:10;17.40;99.90
7445;DHT22;3764;48.126;11.594;2023-06-01T01:44:37;17.40;99.90
7445;DHT22;3764;48.126;11.594;2023-06-01T01:47:11;17.40;99.90
7445;DHT22;3764;48.126;11.594;2023-06-01T01:49:43;17.40;99.90
7445;DHT22;3764;48.126;11.594;2023-06-01T01:52:15;17.30;99.90
7445;DHT22;3764;48.126;11.594;2023-06-01T01:54:44;17.30;99.90
7445;DHT22;3764;48.126;11.594;2023-06-01T01:57:13;17.30;99.90
7445;DHT22;3764;48.126;11.594;2023-06-01T01:59:40;17.30;99.90
7445;DHT22;3764;48.126;11.594;2023-06-01T02:02:10;17.30;99.90
7445;DHT22;3764;48.126;11.594;2023-06-01T02:04:39;17.30;99.90
7445;DHT22;3764;48.126;11.594;2023-06-01T02:07:06;17.20;99.90
7445;DHT22;3764;48.126;11.594;2023-06-01T02:09:33;17.20;99.90
7445;DHT22;3764;48.126;11.594;2023-06-01T02:12:00;17.20;99.90
7445;DHT22;3764;48.126;11.594;2023-06-01T02:14:28;17.20;99.90
7445;DHT22;3764;48.126;11.594;2023-06-01T02:16:55;17.20;99.90
7445;DHT22;3764;48.126;11.594;2023-06-01T02:19:24;17.10;99.90
7445;DHT22;3764;48.126;11.594;2023-06-01T02:21:52;17.10;99.90
7445;DHT22;3764;48.126;11.594;2023-06-01T02:24:19;17.10;99.90
7445;DHT22;3764;48.126;11.594;2023-06-01T02:26:46;17.10;99.90
7445;DHT22;3764;48.126;11.594;2023-06-01T02:29:18;17.00;99.90
7445;DHT22;3764;48.126;11.594;2023-06-01T02:31:47;17.00;99.90
7445;DHT22;3764;48.126;11.594;2023-06-01T02:34:14;16.90;99.90
7445;DHT22;3764;48.126;11.594;2023-06-01T02:36:43;16.90;99.90
7445;DHT22;3764;48.126;11.594;2023-06-01T02:39:10;16.90;99.90
7445;DHT22;3764;48.126;11.594;2023-06-01T02:41:37;16.90;99.90
7445;DHT22;3764;48.126;11.594;2023-06-01T02:44:04;16.90;99.90
7445;DHT22;3764;48.126;11.594;2023-06-01T02:46:31;16.80;99.90
7445;DHT22;3764;48.126;11.594;2023-06-01T02:48:58;16.90;99.90
7445;DHT22;3764;48.126;11.594;2023-06-01T02:51:25;16.80;99.90
7445;DHT22;3764;48.126;11.594;2023-06-01T02:53:54;16.80;99.90
7445;DHT22;3764;48.126;11.594;2023-06-01T02:56:21;16.80;99.90
7445;DHT22;3764;48.126;11.594;2023-06-01T02:58:48;16.80;99.90
7445;DHT22;3764;48.126;11.594;2023-06-01T03:01:15;16.70;99.90
7445;DHT22;3764;48.126;11.594;2023-06-01T03:03:42;16.70;99.90
7445;DHT22;3764;48.126;11.594;2023-06-01T03:06:10;16.70;99.90
7445;DHT22;3764;48.126;11.594;2023-06-01T03:08:39;16.70;99.90
7445;DHT22;3764;48.126;11.594;2023-06-01T03:11:07;16.70;99.90
7445;DHT22;3764;48.126;11.594;2023-06-01T03:13:34;16.70;99.90
7445;DHT22;3764;48.126;11.594;2023-06-01T03:16:01;16.60;99.90
7445;DHT22;3764;48.126;11.594;2023-06-01T03:18:28;16.60;99.90
7445;DHT22;3764;48.126;11.594;2023-06-01T03:20:55;16.60;99.90
7445;DHT22;3764;48.126;11.594;2023-06-01T03:23:22;16.60;99.90
7445;DHT22;3764;48.126;11.594;2023-06-01T03:25:49;16.60;99.90
7445;DHT22;3764;48.126;11.594;2023-06-01T03:28:18;16.50;99.90
7445;DHT22;3764;48.126;11.594;2023-06-01T03:30:45;16.50;99.90
7445;DHT22;3764;48.126;11.594;2023-06-01T03:33:12;16.50;99.90
7445;DHT22;3764;48.126;11.594;2023-06-01T03:35:39;16.50;99.90
7445;DHT22;3764;48.126;11.594;2023-06-01T03:38:06;16.50;99.90
7445;DHT22;3764;48.126;11.594;2023-06-01T03:40:33;16.50;99.90
7445;DHT22;3764;48.126;11.594;2023-06-01T03:43:00;16.50;99.90
7445;DHT22;3764;48.126;11.594;2023-06-01T03:45:29;16.50;99.90
7445;DHT22;3764;48.126;11.594;2023-06-01T03:47:56;16.50;99.90
7445;DHT22;3764;48.126;11.594;2023-06-01T03:50:23;16.50;99.90
7445;DHT22;3764;48.126;11.594;2023-06-01T03:52:50;16.40;99.90
7445;DHT22;3764;48.126;11.594;2023-06-01T03:55:17;16.40;99.90
7445;DHT22;3764;48.126;11.594;2023-06-01T03:57:45;16.40;99.90
7445;DHT22;3764;48.126;11.594;2023-06-01T04:00:12;16.40;99.90
7445;DHT22;3764;48.126;11.594;2023-06-01T04:02:51;16.40;99.90
7445;DHT22;3764;48.126;11.594;2023-06-01T04:05:19;16.40;99.90
7445;DHT22;3764;48.126;11.594;2023-06-01T04:07:47;16.40;99.90
7445;DHT22;3764;48.126;11.594;2023-06-01T04:10:15;16.40;99.90
7445;DHT22;3764;48.126;11.594;2023-06-01T04:12:43;16.40;99.90
7445;DHT22;3764;48.126;11.594;2023-06-01T04:15:11;16.40;99.90
7445;DHT22;3764;48.126;11.594;2023-06-01T04:17:39;16.40;99.90
7445;DHT22;3764;48.126;11.594;2023-06-01T04:20:10;16.40;99.90
7445;DHT22;3764;48.126;11.594;2023-06-01T04:22:37;16.40;99.90
7445;DHT22;3764;48.126;11.594;2023-06-01T04:25:06;16.40;99.90
7445;DHT22;3764;48.126;11.594;2023-06-01T04:27:34;16.40;99.90
7445;DHT22;3764;48.126;11.594;2023-06-01T04:30:04;16.40;99.90
7445;DHT22;3764;48.126;11.594;2023-06-01T04:32:33;16.40;99.90
7445;DHT22;3764;48.126;11.594;2023-06-01T04:35:04;16.30;99.90
7445;DHT22;3764;48.126;11.594;2023-06-01T04:37:34;16.40;99.90
7445;DHT22;3764;48.126;11.594;2023-06-01T04:40:01;16.40;99.90
7445;DHT22;3764;48.126;11.594;2023-06-01T04:42:32;16.40;99.90
7445;DHT22;3764;48.126;11.594;2023-06-01T04:44:59;16.40;99.90
7445;DHT22;3764;48.126;11.594;2023-06-01T04:47:27;16.40;99.90
7445;DHT22;3764;48.126;11.594;2023-06-01T04:49:54;16.40;99.90
7445;DHT22;3764;48.126;11.594;2023-06-01T04:52:21;16.40;99.90
7445;DHT22;3764;48.126;11.594;2023-06-01T04:54:50;16.40;99.90
7445;DHT22;3764;48.126;11.594;2023-06-01T04:57:17;16.40;99.90
7445;DHT22;3764;48.126;11.594;2023-06-01T04:59:44;16.40;99.90
7445;DHT22;3764;48.126;11.594;2023-06-01T05:02:11;16.40;99.90
7445;DHT22;3764;48.126;11.594;2023-06-01T05:04:39;16.40;99.90
7445;DHT22;3764;48.126;11.594;2023-06-01T05:07:06;16.40;99.90
7445;DHT22;3764;48.126;11.594;2023-06-01T05:09:33;16.40;99.90
7445;DHT22;3764;48.126;11.594;2023-06-01T05:12:02;16.40;99.90
7445;DHT22;3764;48.126;11.594;2023-06-01T05:14:29;16.40;99.90
7445;DHT22;3764;48.126;11.594;2023-06-01T05:16:56;16.50;99.90
7445;DHT22;3764;48.126;11.594;2023-06-01T05:19:23;16.40;99.90
7445;DHT22;3764;48.126;11.594;2023-06-01T05:21:50;16.50;99.90
7445;DHT22;3764;48.126;11.594;2023-06-01T05:24:18;16.50;99.90
7445;DHT22;3764;48.126;11.594;2023-06-01T05:26:45;16.50;99.90
7445;DHT22;3764;48.126;11.594;2023-06-01T05:29:14;16.60;99.90
7445;DHT22;3764;48.126;11.594;2023-06-01T05:31:41;16.60;99.90
7445;DHT22;3764;48.126;11.594;2023-06-01T05:34:08;16.60;99.90
7445;DHT22;3764;48.126;11.594;2023-06-01T05:36:35;16.60;99.90
7445;DHT22;3764;48.126;11.594;2023-06-01T05:39:02;16.60;99.90
7445;DHT22;3764;48.126;11.594;2023-06-01T05:41:29;16.60;99.90
7445;DHT22;3764;48.126;11.594;2023-06-01T05:43:56;16.60;99.90
7445;DHT22;3764;48.126;11.594;2023-06-01T05:46:25;16.60;99.90
7445;DHT22;3764;48.126;11.594;2023-06-01T05:48:52;16.60;99.90
7445;DHT22;3764;48.126;11.594;2023-06-01T05:51:20;16.70;99.90
7445;DHT22;3764;48.126;11.594;2023-06-01T05:53:47;16.70;99.90
7445;DHT22;3764;48.126;11.594;2023-06-01T05:56:15;16.70;99.90
7445;DHT22;3764;48.126;11.594;2023-06-01T05:58:42;16.70;99.90
7445;DHT22;3764;48.126;11.594;2023-06-01T06:01:09;16.70;99.90
7445;DHT22;3764;48.126;11.594;2023-06-01T06:03:38;16.70;99.90
7445;DHT22;3764;48.126;11.594;2023-06-01T06:06:05;16.70;99.90
7445;DHT22;3764;48.126;11.594;2023-06-01T06:08:32;16.70;99.90
7445;DHT22;3764;48.126;11.594;2023-06-01T06:10:59;16.70;99.90
7445;DHT22;3764;48.126;11.594;2023-06-01T06:13:26;16.70;99.90
7445;DHT22;3764;48.126;11.594;2023-06-01T06:15:53;16.70;99.90
7445;DHT22;3764;48.126;11.594;2023-06-01T06:18:21;16.80;99.90
7445;DHT22;3764;48.126;11.594;2023-06-01T06:20:50;16.80;99.90
7445;DHT22;3764;48.126;11.594;2023-06-01T06:23:17;16.80;99.90
7445;DHT22;3764;48.126;11.594;2023-06-01T06:25:45;16.80;99.90
7445;DHT22;3764;48.126;11.594;2023-06-01T06:28:14;16.90;99.90
7445;DHT22;3764;48.126;11.594;2023-06-01T06:30:41;16.90;99.90
7445;DHT22;3764;48.126;11.594;2023-06-01T06:33:08;16.90;99.90
7445;DHT22;3764;48.126;11.594;2023-06-01T06:35:35;16.90;99.90
7445;DHT22;3764;48.126;11.594;2023-06-01T06:38:04;16.90;99.90
7445;DHT22;3764;48.126;11.594;2023-06-01T06:40:31;17.00;99.90
7445;DHT22;3764;48.126;11.594;2023-06-01T06:42:58;17.00;99.90
7445;DHT22;3764;48.126;11.594;2023-06-01T06:45:25;17.00;99.90
7445;DHT22;3764;48.126;11.594;2023-06-01T06:47:52;17.00;99.90
7445;DHT22;3764;48.126;11.594;2023-06-01T06:50:19;17.10;99.90
7445;DHT22;3764;48.126;11.594;2023-06-01T06:52:46;17.10;99.90
7445;DHT22;3764;48.126;11.594;2023-06-01T06:55:15;17.20;99.90
7445;DHT22;3764;48.126;11.594;2023-06-01T06:57:42;17.30;99.90
7445;DHT22;3764;48.126;11.594;2023-06-01T07:00:10;17.30;99.90
7445;DHT22;3764;48.126;11.594;2023-06-01T07:02:40;17.30;99.90
7445;DHT22;3764;48.126;11.594;2023-06-01T07:05:08;17.30;99.90
7445;DHT22;3764;48.126;11.594;2023-06-01T07:07:36;17.40;99.90
7445;DHT22;3764;48.126;11.594;2023-06-01T07:10:04;17.40;99.90
7445;DHT22;3764;48.126;11.594;2023-06-01T07:12:33;17.40;99.90
7445;DHT22;3764;48.126;11.594;2023-06-01T07:15:01;17.50;99.90
7445;DHT22;3764;48.126;11.594;2023-06-01T07:17:28;17.50;99.90
7445;DHT22;3764;48.126;11.594;2023-06-01T07:19:56;17.50;99.90
7445;DHT22;3764;48.126;11.594;2023-06-01T07:22:23;17.60;99.90
7445;DHT22;3764;48.126;11.594;2023-06-01T07:24:50;17.60;99.90
7445;DHT22;3764;48.126;11.594;2023-06-01T07:27:17;17.60;99.90
7445;DHT22;3764;48.126;11.594;2023-06-01T07:29:47;17.70;99.90
7445;DHT22;3764;48.126;11.594;2023-06-01T07:32:15;17.70;99.90
7445;DHT22;3764;48.126;11.594;2023-06-01T07:34:42;17.80;99.90
7445;DHT22;3764;48.126;11.594;2023-06-01T07:37:09;17.80;99.90
7445;DHT22;3764;48.126;11.594;2023-06-01T07:39:36;17.90;99.90
7445;DHT22;3764;48.126;11.594;2023-06-01T07:42:03;17.90;99.90
7445;DHT22;3764;48.126;11.594;2023-06-01T07:44:30;17.90;99.90
7445;DHT22;3764;48.126;11.594;2023-06-01T07:46:59;17.90;99.90
7445;DHT22;3764;48.126;11.594;2023-06-01T07:49:27;18.00;99.90
7445;DHT22;3764;48.126;11.594;2023-06-01T07:51:54;18.00;99.90
7445;DHT22;3764;48.126;11.594;2023-06-01T07:54:22;18.00;99.90
7445;DHT22;3764;48.126;11.594;2023-06-01T07:56:49;18.00;99.90
7445;DHT22;3764;48.126;11.594;2023-06-01T07:59:16;18.10;99.90
7445;DHT22;3764;48.126;11.594;2023-06-01T08:01:43;18.10;99.90
7445;DHT22;3764;48.126;11.594;2023-06-01T08:04:12;18.10;99.90
7445;DHT22;3764;48.126;11.594;2023-06-01T08:06:39;18.20;99.90
7445;DHT22;3764;48.126;11.594;2023-06-01T08:09:07;18.20;99.90
7445;DHT22;3764;48.126;11.594;2023-06-01T08:11:35;18.30;99.90
7445;DHT22;3764;48.126;11.594;2023-06-01T08:14:02;18.30;99.90
7445;DHT22;3764;48.126;11.594;2023-06-01T08:16:33;18.40;99.90
7445;DHT22;3764;48.126;11.594;2023-06-01T08:19:00;18.40;99.90
7445;DHT22;3764;48.126;11.594;2023-06-01T08:21:29;18.50;99.90
7445;DHT22;3764;48.126;11.594;2023-06-01T08:23:56;18.50;99.90
7445;DHT22;3764;48.126;11.594;2023-06-01T08:26:23;18.50;99.90
7445;DHT22;3764;48.126;11.594;2023-06-01T08:31:23;18.60;99.90
7445;DHT22;3764;48.126;11.594;2023-06-01T08:33:51;18.70;99.90
7445;DHT22;3764;48.126;11.594;2023-06-01T08:36:19;18.70;99.90
7445;DHT22;3764;48.126;11.594;2023-06-01T08:38:49;18.80;99.90
7445;DHT22;3764;48.126;11.594;2023-06-01T08:41:21;18.90;99.90
7445;DHT22;3764;48.126;11.594;2023-06-01T08:43:54;18.90;99.90
7445;DHT22;3764;48.126;11.594;2023-06-01T08:46:25;19.00;99.90
7445;DHT22;3764;48.126;11.594;2023-06-01T08:48:54;19.00;99.90
7445;DHT22;3764;48.126;11.594;2023-06-01T08:51:23;19.10;99.90
7445;DHT22;3764;48.126;11.594;2023-06-01T08:53:53;19.10;99.90
7445;DHT22;3764;48.126;11.594;2023-06-01T08:56:21;19.20;99.90
7445;DHT22;3764;48.126;11.594;2023-06-01T08:58:48;19.20;99.90
7445;DHT22;3764;48.126;11.594;2023-06-01T09:01:18;19.30;99.90
7445;DHT22;3764;48.126;11.594;2023-06-01T09:03:47;19.30;99.90
7445;DHT22;3764;48.126;11.594;2023-06-01T09:06:15;19.40;99.90
7445;DHT22;3764;48.126;11.594;2023-06-01T09:08:42;19.40;99.90
7445;DHT22;3764;48.126;11.594;2023-06-01T09:11:10;19.40;99.90
7445;DHT22;3764;48.126;11.594;2023-06-01T09:13:39;19.50;99.90
7445;DHT22;3764;48.126;11.594;2023-06-01T09:16:07;19.50;99.90
7445;DHT22;3764;48.126;11.594;2023-06-01T09:18:34;19.60;99.90
7445;DHT22;3764;48.126;11.594;2023-06-01T09:21:11;19.60;99.90
7445;DHT22;3764;48.126;11.594;2023-06-01T09:23:38;19.60;99.90
7445;DHT22;3764;48.126;11.594;2023-06-01T09:26:10;19.70;99.90
7445;DHT22;3764;48.126;11.594;2023-06-01T09:28:54;19.70;99.90
7445;DHT22;3764;48.126;11.594;2023-06-01T09:31:37;19.80;99.90
7445;DHT22;3764;48.126;11.594;2023-06-01T09:34:06;19.80;99.90
7445;DHT22;3764;48.126;11.594;2023-06-01T09:36:34;19.90;99.90
7445;DHT22;3764;48.126;11.594;2023-06-01T09:39:03;20.00;99.90
7445;DHT22;3764;48.126;11.594;2023-06-01T09:41:49;20.00;99.90
7445;DHT22;3764;48.126;11.594;2023-06-01T09:44:23;20.00;99.90
7445;DHT22;3764;48.126;11.594;2023-06-01T09:46:52;20.10;99.90
7445;DHT22;3764;48.126;11.594;2023-06-01T09:49:21;20.10;99.90
7445;DHT22;3764;48.126;11.594;2023-06-01T09:51:48;20.10;99.90
7445;DHT22;3764;48.126;11.594;2023-06-01T09:54:23;20.20;99.90
7445;DHT22;3764;48.126;11.594;2023-06-01T09:56:52;20.30;99.90
7445;DHT22;3764;48.126;11.594;2023-06-01T09:59:20;20.40;99.90
7445;DHT22;3764;48.126;11.594;2023-06-01T10:01:50;20.40;99.90
7445;DHT22;3764;48.126;11.594;2023-06-01T10:04:23;20.40;99.90
7445;DHT22;3764;48.126;11.594;2023-06-01T10:06:52;20.50;99.90
7445;DHT22;3764;48.126;11.594;2023-06-01T10:09:20;20.50;99.90
7445;DHT22;3764;48.126;11.594;2023-06-01T10:11:50;20.50;99.90
7445;DHT22;3764;48.126;11.594;2023-06-01T10:14:20;20.60;99.90
7445;DHT22;3764;48.126;11.594;2023-06-01T10:16:49;20.60;99.90
7445;DHT22;3764;48.126;11.594;2023-06-01T10:19:17;20.70;99.90
7445;DHT22;3764;48.126;11.594;2023-06-01T10:21:45;20.70;99.90
7445;DHT22;3764;48.126;11.594;2023-06-01T10:24:12;20.80;99.90
7445;DHT22;3764;48.126;11.594;2023-06-01T10:26:51;20.90;99.90
7445;DHT22;3764;48.126;11.594;2023-06-01T10:29:24;20.90;99.90
7445;DHT22;3764;48.126;11.594;2023-06-01T10:31:51;21.00;99.90
7445;DHT22;3764;48.126;11.594;2023-06-01T10:34:37;21.00;99.90
7445;DHT22;3764;48.126;11.594;2023-06-01T10:37:17;21.10;99.90
7445;DHT22;3764;48.126;11.594;2023-06-01T10:39:44;21.10;99.90
7445;DHT22;3764;48.126;11.594;2023-06-01T10:42:38;21.10;99.90
7445;DHT22;3764;48.126;11.594;2023-06-01T10:45:37;21.20;99.90
7445;DHT22;3764;48.126;11.594;2023-06-01T10:48:06;21.30;99.90
7445;DHT22;3764;48.126;11.594;2023-06-01T10:50:36;21.40;99.90
7445;DHT22;3764;48.126;11.594;2023-06-01T10:53:25;21.40;99.90
7445;DHT22;3764;48.126;11.594;2023-06-01T10:56:17;21.40;99.90
7445;DHT22;3764;48.126;11.594;2023-06-01T10:58:44;21.50;99.90
7445;DHT22;3764;48.126;11.594;2023-06-01T11:01:18;21.50;99.90
7445;DHT22;3764;48.126;11.594;2023-06-01T11:03:48;21.50;99.90
7445;DHT22;3764;48.126;11.594;2023-06-01T11:06:28;21.60;99.90
7445;DHT22;3764;48.126;11.594;2023-06-01T11:08:58;21.60;99.90
7445;DHT22;3764;48.126;11.594;2023-06-01T11:12:00;21.70;99.90
7445;DHT22;3764;48.126;11.594;2023-06-01T11:14:29;21.70;99.90
7445;DHT22;3764;48.126;11.594;2023-06-01T11:17:28;21.70;99.90
7445;DHT22;3764;48.126;11.594;2023-06-01T11:20:00;21.80;99.90
7445;DHT22;3764;48.126;11.594;2023-06-01T11:22:37;21.80;99.80
7445;DHT22;3764;48.126;11.594;2023-06-01T11:25:06;21.90;99.90
7445;DHT22;3764;48.126;11.594;2023-06-01T11:27:35;21.90;99.90
7445;DHT22;3764;48.126;11.594;2023-06-01T11:30:03;21.90;99.90
7445;DHT22;3764;48.126;11.594;2023-06-01T11:32:33;21.90;99.90
7445;DHT22;3764;48.126;11.594;2023-06-01T11:35:16;22.00;99.80
7445;DHT22;3764;48.126;11.594;2023-06-01T11:37:43;22.10;99.80
7445;DHT22;3764;48.126;11.594;2023-06-01T11:40:13;22.10;99.90
7445;DHT22;3764;48.126;11.594;2023-06-01T11:42:40;22.20;99.30
7445;DHT22;3764;48.126;11.594;2023-06-01T11:45:14;22.20;99.10
7445;DHT22;3764;48.126;11.594;2023-06-01T11:47:43;22.20;99.10
7445;DHT22;3764;48.126;11.594;2023-06-01T11:50:20;22.30;98.80
7445;DHT22;3764;48.126;11.594;2023-06-01T11:52:47;22.30;98.90
7445;DHT22;3764;48.126;11.594;2023-06-01T11:55:14;22.30;99.20
7445;DHT22;3764;48.126;11.594;2023-06-01T11:57:42;22.30;99.00
7445;DHT22;3764;48.126;11.594;2023-06-01T12:00:11;22.40;99.20
7445;DHT22;3764;48.126;11.594;2023-06-01T12:02:39;22.40;98.50
7445;DHT22;3764;48.126;11.594;2023-06-01T12:05:09;22.40;99.10
7445;DHT22;3764;48.126;11.594;2023-06-01T12:07:45;22.50;99.90
7445;DHT22;3764;48.126;11.594;2023-06-01T12:10:14;22.60;99.00
7445;DHT22;3764;48.126;11.594;2023-06-01T12:12:42;22.70;99.90
7445;DHT22;3764;48.126;11.594;2023-06-01T12:15:10;22.70;99.40
7445;DHT22;3764;48.126;11.594;2023-06-01T12:17:47;22.70;98.60
7445;DHT22;3764;48.126;11.594;2023-06-01T12:20:27;22.80;99.00
7445;DHT22;3764;48.126;11.594;2023-06-01T12:22:55;22.80;99.20
7445;DHT22;3764;48.126;11.594;2023-06-01T12:25:23;22.80;98.30
7445;DHT22;3764;48.126;11.594;2023-06-01T12:28:01;22.80;98.90
7445;DHT22;3764;48.126;11.594;2023-06-01T12:30:28;22.90;99.90
7445;DHT22;3764;48.126;11.594;2023-06-01T12:32:56;22.90;99.00
7445;DHT22;3764;48.126;11.594;2023-06-01T12:35:23;23.00;99.10
7445;DHT22;3764;48.126;11.594;2023-06-01T12:38:05;23.10;99.10
7445;DHT22;3764;48.126;11.594;2023-06-01T12:40:34;23.20;99.40
7445;DHT22;3764;48.126;11.594;2023-06-01T12:43:03;23.20;99.10
7445;DHT22;3764;48.126;11.594;2023-06-01T12:45:37;23.20;98.40
7445;DHT22;3764;48.126;11.594;2023-06-01T12:48:05;23.40;99.30
7445;DHT22;3764;48.126;11.594;2023-06-01T12:50:33;23.40;97.80
7445;DHT22;3764;48.126;11.594;2023-06-01T12:53:00;23.40;97.00
7445;DHT22;3764;48.126;11.594;2023-06-01T12:55:29;23.40;97.20
7445;DHT22;3764;48.126;11.594;2023-06-01T12:57:56;23.30;97.40
7445;DHT22;3764;48.126;11.594;2023-06-01T13:00:24;23.30;97.80
7445;DHT22;3764;48.126;11.594;2023-06-01T13:02:51;23.20;98.10
7445;DHT22;3764;48.126;11.594;2023-06-01T13:05:19;23.20;98.30
7445;DHT22;3764;48.126;11.594;2023-06-01T13:07:46;23.20;97.80
7445;DHT22;3764;48.126;11.594;2023-06-01T13:10:13;23.20;97.60
7445;DHT22;3764;48.126;11.594;2023-06-01T13:12:42;23.20;96.60
7445;DHT22;3764;48.126;11.594;2023-06-01T13:15:10;23.20;96.50
7445;DHT22;3764;48.126;11.594;2023-06-01T13:17:37;23.20;96.80
7445;DHT22;3764;48.126;11.594;2023-06-01T13:20:05;23.20;97.80
7445;DHT22;3764;48.126;11.594;2023-06-01T13:22:33;23.20;97.30
7445;DHT22;3764;48.126;11.594;2023-06-01T13:25:00;23.30;97.50
7445;DHT22;3764;48.126;11.594;2023-06-01T13:27:27;23.30;97.40
7445;DHT22;3764;48.126;11.594;2023-06-01T13:29:56;23.30;97.60
7445;DHT22;3764;48.126;11.594;2023-06-01T13:32:23;23.40;97.40
7445;DHT22;3764;48.126;11.594;2023-06-01T13:34:51;23.40;97.60
7445;DHT22;3764;48.126;11.594;2023-06-01T13:37:18;23.40;97.70
7445;DHT22;3764;48.126;11.594;2023-06-01T13:39:45;23.40;97.70
7445;DHT22;3764;48.126;11.594;2023-06-01T13:42:12;23.40;97.80
7445;DHT22;3764;48.126;11.594;2023-06-01T13:44:39;23.40;97.80
7445;DHT22;3764;48.126;11.594;2023-06-01T13:47:12;23.40;98.50
7445;DHT22;3764;48.126;11.594;2023-06-01T13:49:40;23.40;99.30
7445;DHT22;3764;48.126;11.594;2023-06-01T13:52:08;23.40;99.10
7445;DHT22;3764;48.126;11.594;2023-06-01T13:54:35;23.40;98.30
7445;DHT22;3764;48.126;11.594;2023-06-01T13:57:03;23.40;97.80
7445;DHT22;3764;48.126;11.594;2023-06-01T13:59:31;23.40;97.70
7445;DHT22;3764;48.126;11.594;2023-06-01T14:02:00;23.40;98.00
7445;DHT22;3764;48.126;11.594;2023-06-01T14:04:30;23.50;97.80
7445;DHT22;3764;48.126;11.594;2023-06-01T14:06:57;23.50;98.30
7445;DHT22;3764;48.126;11.594;2023-06-01T14:09:24;23.40;98.00
7445;DHT22;3764;48.126;11.594;2023-06-01T14:11:51;23.50;97.80
7445;DHT22;3764;48.126;11.594;2023-06-01T14:14:18;23.50;98.40
7445;DHT22;3764;48.126;11.594;2023-06-01T14:16:45;23.50;97.50
7445;DHT22;3764;48.126;11.594;2023-06-01T14:19:12;23.50;96.70
7445;DHT22;3764;48.126;11.594;2023-06-01T14:21:41;23.60;96.40
7445;DHT22;3764;48.126;11.594;2023-06-01T14:24:08;23.60;96.40
7445;DHT22;3764;48.126;11.594;2023-06-01T14:26:35;23.60;96.90
7445;DHT22;3764;48.126;11.594;2023-06-01T14:29:02;23.60;97.30
7445;DHT22;3764;48.126;11.594;2023-06-01T14:31:29;23.60;97.00
7445;DHT22;3764;48.126;11.594;2023-06-01T14:33:56;23.60;97.10
7445;DHT22;3764;48.126;11.594;2023-06-01T14:36:23;23.50;97.30
7445;DHT22;3764;48.126;11.594;2023-06-01T14:38:52;23.50;97.10
7445;DHT22;3764;48.126;11.594;2023-06-01T14:41:19;23.50;98.30
7445;DHT22;3764;48.126;11.594;2023-06-01T14:43:46;23.50;99.80
7445;DHT22;3764;48.126;11.594;2023-06-01T14:46:14;23.50;98.20
7445;DHT22;3764;48.126;11.594;2023-06-01T14:48:41;23.40;97.40
7445;DHT22;3764;48.126;11.594;2023-06-01T14:51:08;23.40;98.60
7445;DHT22;3764;48.126;11.594;2023-06-01T14:53:35;23.40;99.90
7445;DHT22;3764;48.126;11.594;2023-06-01T14:56:05;23.40;97.90
7445;DHT22;3764;48.126;11.594;2023-06-01T14:58:32;23.40;99.50
7445;DHT22;3764;48.126;11.594;2023-06-01T15:00:59;23.50;99.80
7445;DHT22;3764;48.126;11.594;2023-06-01T15:03:26;23.50;99.50
7445;DHT22;3764;48.126;11.594;2023-06-01T15:05:53;23.60;98.50
7445;DHT22;3764;48.126;11.594;2023-06-01T15:08:20;23.70;96.30
7445;DHT22;3764;48.126;11.594;2023-06-01T15:10:47;23.80;95.60
7445;DHT22;3764;48.126;11.594;2023-06-01T15:13:16;23.80;95.10
7445;DHT22;3764;48.126;11.594;2023-06-01T15:15:43;23.90;95.20
7445;DHT22;3764;48.126;11.594;2023-06-01T15:18:10;24.00;97.60
7445;DHT22;3764;48.126;11.594;2023-06-01T15:20:37;24.00;98.30
7445;DHT22;3764;48.126;11.594;2023-06-01T15:23:04;24.00;97.70
7445;DHT22;3764;48.126;11.594;2023-06-01T15:25:31;24.00;98.60
7445;DHT22;3764;48.126;11.594;2023-06-01T15:27:58;24.00;98.70
7445;DHT22;3764;48.126;11.594;2023-06-01T15:30:27;24.00;98.20
7445;DHT22;3764;48.126;11.594;2023-06-01T15:32:58;24.00;97.10
7445;DHT22;3764;48.126;11.594;2023-06-01T15:35:25;24.00;95.50
7445;DHT22;3764;48.126;11.594;2023-06-01T15:37:52;24.00;95.40
7445;DHT22;3764;48.126;11.594;2023-06-01T15:40:20;24.00;97.20
7445;DHT22;3764;48.126;11.594;2023-06-01T15:42:47;24.10;97.50
7445;DHT22;3764;48.126;11.594;2023-06-01T15:45:14;24.10;98.20
7445;DHT22;3764;48.126;11.594;2023-06-01T15:47:42;24.10;97.90
7445;DHT22;3764;48.126;11.594;2023-06-01T15:50:10;24.00;97.50
7445;DHT22;3764;48.126;11.594;2023-06-01T15:52:37;24.00;96.80
7445;DHT22;3764;48.126;11.594;2023-06-01T15:55:04;24.00;96.50
7445;DHT22;3764;48.126;11.594;2023-06-01T15:57:32;23.90;95.80
7445;DHT22;3764;48.126;11.594;2023-06-01T15:59:59;23.80;95.40